sensor_id;sensor_type;location;lat;lon;timestamp;temperature;humidity
1277;DHT22;631;51.024;13.826;2024-02-15T00:02:20;8.90;99.90
1277;DHT22;631;51.024;13.826;2024-02-15T00:04:46;8.90;99.90
1277;DHT22;631;51.024;13.826;2024-02-15T00:07:11;9.00;99.90
1277;DHT22;631;51.024;13.826;2024-02-15T00:09:37;8.90;99.90
1277;DHT22;631;51.024;13.826;2024-02-15T00:12:03;8.90;99.90
1277;DHT22;631;51.024;13.826;2024-02-15T00:14:28;8.90;99.90
1277;DHT22;631;51.024;13.826;2024-02-15T00:16:54;8.90;99.90
1277;DHT22;631;51.024;13.826;2024-02-15T00:19:20;8.80;99.90
1277;DHT22;631;51.024;13.826;2024-02-15T00:21:47;8.80;99.90
1277;DHT22;631;51.024;13.826;2024-02-15T00:24:13;8.80;99.90
1277;DHT22;631;51.024;13.826;2024-02-15T00:26:40;8.70;99.90
1277;DHT22;631;51.024;13.826;2024-02-15T00:29:06;8.70;99.90
1277;DHT22;631;51.024;13.826;2024-02-15T00:31:31;8.60;99.90
1277;DHT22;631;51.024;13.826;2024-02-15T00:33:57;8.60;99.90
1277;DHT22;631;51.024;13.826;2024-02-15T00:36:24;8.50;99.90
1277;DHT22;631;51.024;13.826;2024-02-15T00:38:50;8.60;99.90
1277;DHT22;631;51.024;13.826;2024-02-15T00:41:17;8.60;99.90
1277;DHT22;631;51.024;13.826;2024-02-15T00:43:43;8.60;99.90
1277;DHT22;631;51.024;13.826;2024-02-15T00:46:09;8.60;99.90
1277;DHT22;631;51.024;13.826;2024-02-15T00:48:34;8.60;99.90
1277;DHT22;631;51.024;13.826;2024-02-15T00:51:00;8.60;99.90
1277;DHT22;631;51.024;13.826;2024-02-15T00:53:25;8.50;99.90
1277;DHT22;631;51.024;13.826;2024-02-15T00:55:51;8.50;99.90
1277;DHT22;631;51.024;13.826;2024-02-15T00:58:17;8.50;99.90
1277;DHT22;631;51.024;13.826;2024-02-15T01:00:43;8.50;99.90
1277;DHT22;631;51.024;13.826;2024-02-15T01:03:08;8.50;99.90
1277;DHT22;631;51.024;13.826;2024-02-15T01:05:34;8.50;99.90
1277;DHT22;631;51.024;13.826;2024-02-15T01:08:00;8.50;99.90
1277;DHT22;631;51.024;13.826;2024-02-15T01:10:25;8.50;99.90
1277;DHT22;631;51.024;13.826;2024-02-15T01:12:52;8.50;99.90
1277;DHT22;631;51.024;13.826;2024-02-15T01:15:18;8.50;99.90
1277;DHT22;631;51.024;13.826;2024-02-15T01:17:45;8.50;99.90
1277;DHT22;631;51.024;13.826;2024-02-15T01:20:11;8.50;99.90
1277;DHT22;631;51.024;13.826;2024-02-15T01:22:37;8.50;99.90
1277;DHT22;631;51.024;13.826;2024-02-15T01:25:03;8.50;99.90
1277;DHT22;631;51.024;13.826;2024-02-15T01:27:29;8.50;99.90
1277;DHT22;631;51.024;13.826;2024-02-15T01:29:58;8.50;99.90
1277;DHT22;631;51.024;13.826;2024-02-15T01:32:24;8.50;99.90
1277;DHT22;631;51.024;13.826;2024-02-15T01:34:51;8.50;99.90
1277;DHT22;631;51.024;13.826;2024-02-15T01:37:19;8.60;99.90
1277;DHT22;631;51.024;13.826;2024-02-15T01:39:45;8.60;99.90
1277;DHT22;631;51.024;13.826;2024-02-15T01:42:11;8.70;99.90
1277;DHT22;631;51.024;13.826;2024-02-15T01:44:40;8.70;99.90
1277;DHT22;631;51.024;13.826;2024-02-15T01:47:06;8.70;99.90
1277;DHT22;631;51.024;13.826;2024-02-15T01:49:32;8.80;99.90
1277;DHT22;631;51.024;13.826;2024-02-15T01:52:00;8.80;99.90
1277;DHT22;631;51.024;13.826;2024-02-15T01:54:28;8.80;99.90
1277;DHT22;631;51.024;13.826;2024-02-15T01:56:54;8.80;99.90
1277;DHT22;631;51.024;13.826;2024-02-15T01:59:23;8.90;99.90
1277;DHT22;631;51.024;13.826;2024-02-15T02:01:48;8.90;99.90
1277;DHT22;631;51.024;13.826;2024-02-15T02:04:15;9.00;99.90
1277;DHT22;631;51.024;13.826;2024-02-15T02:06:41;9.00;99.90
1277;DHT22;631;51.024;13.826;2024-02-15T02:09:10;9.00;99.90
1277;DHT22;631;51.024;13.826;2024-02-15T02:11:38;9.00;99.90
1277;DHT22;631;51.024;13.826;2024-02-15T02:14:04;9.00;99.90
1277;DHT22;631;51.024;13.826;2024-02-15T02:16:30;9.10;99.90
1277;DHT22;631;51.024;13.826;2024-02-15T02:19:01;9.00;99.90
1277;DHT22;631;51.024;13.826;2024-02-15T02:21:27;9.10;99.90
1277;DHT22;631;51.024;13.826;2024-02-15T02:23:55;9.20;99.90
1277;DHT22;631;51.024;13.826;2024-02-15T02:26:23;9.10;99.90
1277;DHT22;631;51.024;13.826;2024-02-15T02:28:49;9.20;99.90
1277;DHT22;631;51.024;13.826;2024-02-15T02:31:15;9.10;99.90
1277;DHT22;631;51.024;13.826;2024-02-15T02:33:49;9.20;99.90
1277;DHT22;631;51.024;13.826;2024-02-15T02:36:17;9.20;99.90
1277;DHT22;631;51.024;13.826;2024-02-15T02:38:43;9.20;99.90
1277;DHT22;631;51.024;13.826;2024-02-15T02:41:11;9.20;99.90
1277;DHT22;631;51.024;13.826;2024-02-15T02:43:36;9.20;99.90
1277;DHT22;631;51.024;13.826;2024-02-15T02:46:03;9.20;99.90
1277;DHT22;631;51.024;13.826;2024-02-15T02:48:31;9.20;99.90
1277;DHT22;631;51.024;13.826;2024-02-15T02:50:57;9.20;99.90
1277;DHT22;631;51.024;13.826;2024-02-15T02:53:23;9.30;99.90
1277;DHT22;631;51.024;13.826;2024-02-15T02:55:49;9.20;99.90
1277;DHT22;631;51.024;13.826;2024-02-15T02:58:15;9.20;99.90
1277;DHT22;631;51.024;13.826;2024-02-15T03:00:41;9.20;99.90
1277;DHT22;631;51.024;13.826;2024-02-15T03:03:08;9.20;99.90
1277;DHT22;631;51.024;13.826;2024-02-15T03:05:34;9.30;99.90
1277;DHT22;631;51.024;13.826;2024-02-15T03:08:00;9.20;99.90
1277;DHT22;631;51.024;13.826;2024-02-15T03:10:26;9.30;99.90
1277;DHT22;631;51.024;13.826;2024-02-15T03:12:51;9.30;99.90
1277;DHT22;631;51.024;13.826;2024-02-15T03:15:18;9.30;99.90
1277;DHT22;631;51.024;13.826;2024-02-15T03:17:46;9.20;99.90
1277;DHT22;631;51.024;13.826;2024-02-15T03:20:12;9.30;99.90
1277;DHT22;631;51.024;13.826;2024-02-15T03:25:19;9.20;99.90
1277;DHT22;631;51.024;13.826;2024-02-15T03:27:44;9.20;99.90
1277;DHT22;631;51.024;13.826;2024-02-15T03:30:10;9.10;99.90
1277;DHT22;631;51.024;13.826;2024-02-15T03:32:36;9.20;99.90
1277;DHT22;631;51.024;13.826;2024-02-15T03:35:02;9.20;99.90
1277;DHT22;631;51.024;13.826;2024-02-15T03:37:28;9.20;99.90
1277;DHT22;631;51.024;13.826;2024-02-15T03:39:54;9.20;99.90
1277;DHT22;631;51.024;13.826;2024-02-15T03:42:20;9.20;99.90
1277;DHT22;631;51.024;13.826;2024-02-15T03:44:46;9.20;99.90
1277;DHT22;631;51.024;13.826;2024-02-15T03:47:13;9.20;99.90
1277;DHT22;631;51.024;13.826;2024-02-15T03:49:40;9.20;99.90
1277;DHT22;631;51.024;13.826;2024-02-15T03:52:08;9.20;99.90
1277;DHT22;631;51.024;13.826;2024-02-15T03:54:36;9.20;99.90
1277;DHT22;631;51.024;13.826;2024-02-15T03:57:01;9.20;99.90
1277;DHT22;631;51.024;13.826;2024-02-15T03:59:27;9.20;99.90
1277;DHT22;631;51.024;13.826;2024-02-15T04:01:53;9.20;99.90
1277;DHT22;631;51.024;13.826;2024-02-15T04:04:20;9.20;99.90
1277;DHT22;631;51.024;13.826;2024-02-15T04:06:51;9.20;99.90
1277;DHT22;631;51.024;13.826;2024-02-15T04:09:18;9.30;99.90
1277;DHT22;631;51.024;13.826;2024-02-15T04:11:44;9.30;99.90
1277;DHT22;631;51.024;13.826;2024-02-15T04:14:12;9.30;99.90
1277;DHT22;631;51.024;13.826;2024-02-15T04:16:38;9.30;99.90
1277;DHT22;631;51.024;13.826;2024-02-15T04:19:03;9.30;99.90
1277;DHT22;631;51.024;13.826;2024-02-15T04:21:29;9.40;99.90
1277;DHT22;631;51.024;13.826;2024-02-15T04:23:56;9.40;99.90
1277;DHT22;631;51.024;13.826;2024-02-15T04:26:21;9.30;99.90
1277;DHT22;631;51.024;13.826;2024-02-15T04:28:54;9.30;99.90
1277;DHT22;631;51.024;13.826;2024-02-15T04:31:20;9.30;99.90
1277;DHT22;631;51.024;13.826;2024-02-15T04:33:52;9.30;99.90
1277;DHT22;631;51.024;13.826;2024-02-15T04:36:17;9.30;99.90
1277;DHT22;631;51.024;13.826;2024-02-15T04:38:49;9.40;99.90
1277;DHT22;631;51.024;13.826;2024-02-15T04:41:16;9.40;99.90
1277;DHT22;631;51.024;13.826;2024-02-15T04:43:46;9.40;99.90
1277;DHT22;631;51.024;13.826;2024-02-15T04:46:12;9.40;99.90
1277;DHT22;631;51.024;13.826;2024-02-15T04:48:39;9.50;99.90
1277;DHT22;631;51.024;13.826;2024-02-15T04:51:07;9.50;99.90
1277;DHT22;631;51.024;13.826;2024-02-15T04:53:33;9.50;99.90
1277;DHT22;631;51.024;13.826;2024-02-15T04:55:58;9.60;99.90
1277;DHT22;631;51.024;13.826;2024-02-15T04:58:26;9.50;99.90
1277;DHT22;631;51.024;13.826;2024-02-15T05:00:54;9.50;99.90
1277;DHT22;631;51.024;13.826;2024-02-15T05:03:24;9.50;99.90
1277;DHT22;631;51.024;13.826;2024-02-15T05:05:50;9.50;99.90
1277;DHT22;631;51.024;13.826;2024-02-15T05:08:15;9.50;99.90
1277;DHT22;631;51.024;13.826;2024-02-15T05:10:41;9.50;99.90
1277;DHT22;631;51.024;13.826;2024-02-15T05:13:07;9.50;99.90
1277;DHT22;631;51.024;13.826;2024-02-15T05:15:33;9.50;99.90
1277;DHT22;631;51.024;13.826;2024-02-15T05:17:59;9.50;99.90
1277;DHT22;631;51.024;13.826;2024-02-15T05:20:27;9.50;99.90
1277;DHT22;631;51.024;13.826;2024-02-15T05:22:53;9.50;99.90
1277;DHT22;631;51.024;13.826;2024-02-15T05:25:19;9.50;99.90
1277;DHT22;631;51.024;13.826;2024-02-15T05:27:48;9.50;99.90
1277;DHT22;631;51.024;13.826;2024-02-15T05:30:14;9.50;99.90
1277;DHT22;631;51.024;13.826;2024-02-15T05:32:40;9.50;99.90
1277;DHT22;631;51.024;13.826;2024-02-15T05:35:10;9.50;99.90
1277;DHT22;631;51.024;13.826;2024-02-15T05:37:39;9.50;99.90
1277;DHT22;631;51.024;13.826;2024-02-15T05:40:06;9.60;99.90
1277;DHT22;631;51.024;13.826;2024-02-15T05:42:32;9.60;99.90
1277;DHT22;631;51.024;13.826;2024-02-15T05:47:55;9.70;99.90
1277;DHT22;631;51.024;13.826;2024-02-15T05:50:21;9.70;99.90
1277;DHT22;631;51.024;13.826;2024-02-15T05:52:50;9.80;99.90
1277;DHT22;631;51.024;13.826;2024-02-15T05:55:20;9.70;99.90
1277;DHT22;631;51.024;13.826;2024-02-15T05:57:46;9.70;99.90
1277;DHT22;631;51.024;13.826;2024-02-15T06:00:12;9.70;99.90
1277;DHT22;631;51.024;13.826;2024-02-15T06:02:38;9.70;99.90
1277;DHT22;631;51.024;13.826;2024-02-15T06:05:04;9.70;99.90
1277;DHT22;631;51.024;13.826;2024-02-15T06:07:31;9.70;99.90
1277;DHT22;631;51.024;13.826;2024-02-15T06:09:59;9.60;99.90
1277;DHT22;631;51.024;13.826;2024-02-15T06:12:29;9.60;99.90
1277;DHT22;631;51.024;13.826;2024-02-15T06:14:55;9.60;99.90
1277;DHT22;631;51.024;13.826;2024-02-15T06:17:21;9.60;99.90
1277;DHT22;631;51.024;13.826;2024-02-15T06:19:47;9.50;99.90
1277;DHT22;631;51.024;13.826;2024-02-15T06:22:12;9.50;99.90
1277;DHT22;631;51.024;13.826;2024-02-15T06:24:38;9.60;99.90
1277;DHT22;631;51.024;13.826;2024-02-15T06:27:05;9.60;99.90
1277;DHT22;631;51.024;13.826;2024-02-15T06:29:31;9.60;99.90
1277;DHT22;631;51.024;13.826;2024-02-15T06:32:15;9.60;99.90
1277;DHT22;631;51.024;13.826;2024-02-15T06:34:59;9.60;99.90
1277;DHT22;631;51.024;13.826;2024-02-15T06:37:43;9.60;99.90
1277;DHT22;631;51.024;13.826;2024-02-15T06:40:27;9.60;99.90
1277;DHT22;631;51.024;13.826;2024-02-15T06:42:54;9.50;99.90
1277;DHT22;631;51.024;13.826;2024-02-15T06:45:19;9.60;99.90
1277;DHT22;631;51.024;13.826;2024-02-15T06:47:45;9.60;99.90
1277;DHT22;631;51.024;13.826;2024-02-15T06:50:12;9.60;99.90
1277;DHT22;631;51.024;13.826;2024-02-15T06:52:38;9.50;99.90
1277;DHT22;631;51.024;13.826;2024-02-15T06:55:07;9.60;99.90
1277;DHT22;631;51.024;13.826;2024-02-15T06:57:34;9.60;99.90
1277;DHT22;631;51.024;13.826;2024-02-15T07:00:06;9.60;99.90
1277;DHT22;631;51.024;13.826;2024-02-15T07:02:35;9.60;99.90
1277;DHT22;631;51.024;13.826;2024-02-15T07:05:01;9.60;99.90
1277;DHT22;631;51.024;13.826;2024-02-15T07:07:30;9.60;99.90
1277;DHT22;631;51.024;13.826;2024-02-15T07:09:57;9.60;99.90
1277;DHT22;631;51.024;13.826;2024-02-15T07:12:23;9.70;99.90
1277;DHT22;631;51.024;13.826;2024-02-15T07:14:49;9.70;99.90
1277;DHT22;631;51.024;13.826;2024-02-15T07:17:14;9.70;99.90
1277;DHT22;631;51.024;13.826;2024-02-15T07:19:44;9.70;99.90
1277;DHT22;631;51.024;13.826;2024-02-15T07:22:10;9.60;99.90
1277;DHT22;631;51.024;13.826;2024-02-15T07:24:36;9.70;99.90
1277;DHT22;631;51.024;13.826;2024-02-15T07:27:04;9.60;99.90
1277;DHT22;631;51.024;13.826;2024-02-15T07:29:30;9.60;99.90
1277;DHT22;631;51.024;13.826;2024-02-15T07:31:58;9.60;99.90
1277;DHT22;631;51.024;13.826;2024-02-15T07:34:24;9.60;99.90
1277;DHT22;631;51.024;13.826;2024-02-15T07:36:52;9.60;99.90
1277;DHT22;631;51.024;13.826;2024-02-15T07:39:17;9.70;99.90
1277;DHT22;631;51.024;13.826;2024-02-15T07:41:53;9.70;99.90
1277;DHT22;631;51.024;13.826;2024-02-15T07:44:20;9.70;99.90
1277;DHT22;631;51.024;13.826;2024-02-15T07:46:46;9.80;99.90
1277;DHT22;631;51.024;13.826;2024-02-15T07:49:11;9.80;99.90
1277;DHT22;631;51.024;13.826;2024-02-15T07:51:37;9.80;99.90
1277;DHT22;631;51.024;13.826;2024-02-15T07:54:03;9.90;99.90
1277;DHT22;631;51.024;13.826;2024-02-15T07:56:30;9.90;99.90
1277;DHT22;631;51.024;13.826;2024-02-15T07:58:55;9.90;99.90
1277;DHT22;631;51.024;13.826;2024-02-15T08:01:22;9.90;99.90
1277;DHT22;631;51.024;13.826;2024-02-15T08:03:47;9.90;99.90
1277;DHT22;631;51.024;13.826;2024-02-15T08:06:14;9.90;99.90
1277;DHT22;631;51.024;13.826;2024-02-15T08:08:44;10.00;99.90
1277;DHT22;631;51.024;13.826;2024-02-15T08:11:13;10.00;99.90
1277;DHT22;631;51.024;13.826;2024-02-15T08:13:49;10.10;99.90
1277;DHT22;631;51.024;13.826;2024-02-15T08:16:18;10.20;99.90
1277;DHT22;631;51.024;13.826;2024-02-15T08:18:44;10.30;99.90
1277;DHT22;631;51.024;13.826;2024-02-15T08:21:11;10.40;99.90
1277;DHT22;631;51.024;13.826;2024-02-15T08:23:37;10.60;99.90
1277;DHT22;631;51.024;13.826;2024-02-15T08:26:04;10.70;99.90
1277;DHT22;631;51.024;13.826;2024-02-15T08:28:29;10.90;99.90
1277;DHT22;631;51.024;13.826;2024-02-15T08:30:55;11.00;99.90
1277;DHT22;631;51.024;13.826;2024-02-15T08:33:24;11.10;99.90
1277;DHT22;631;51.024;13.826;2024-02-15T08:35:50;11.30;99.90
1277;DHT22;631;51.024;13.826;2024-02-15T08:38:16;11.60;99.90
1277;DHT22;631;51.024;13.826;2024-02-15T08:40:42;12.00;99.90
1277;DHT22;631;51.024;13.826;2024-02-15T08:43:11;12.30;99.90
1277;DHT22;631;51.024;13.826;2024-02-15T08:45:37;12.70;99.90
1277;DHT22;631;51.024;13.826;2024-02-15T08:48:03;12.90;99.90
1277;DHT22;631;51.024;13.826;2024-02-15T08:50:30;13.30;99.90
1277;DHT22;631;51.024;13.826;2024-02-15T08:52:55;13.80;93.20
1277;DHT22;631;51.024;13.826;2024-02-15T08:55:22;14.20;20.40
1277;DHT22;631;51.024;13.826;2024-02-15T08:57:52;14.50;1.00
1277;DHT22;631;51.024;13.826;2024-02-15T09:00:18;14.70;1.00
1277;DHT22;631;51.024;13.826;2024-02-15T09:02:47;14.90;1.00
1277;DHT22;631;51.024;13.826;2024-02-15T09:05:14;15.20;1.00
1277;DHT22;631;51.024;13.826;2024-02-15T09:07:43;15.30;1.00
1277;DHT22;631;51.024;13.826;2024-02-15T09:10:09;15.00;99.90
1277;DHT22;631;51.024;13.826;2024-02-15T09:12:45;14.90;1.00
1277;DHT22;631;51.024;13.826;2024-02-15T09:15:14;14.60;1.00
1277;DHT22;631;51.024;13.826;2024-02-15T09:17:40;14.30;1.00
1277;DHT22;631;51.024;13.826;2024-02-15T09:20:10;14.10;99.90
1277;DHT22;631;51.024;13.826;2024-02-15T09:22:53;13.90;99.90
1277;DHT22;631;51.024;13.826;2024-02-15T09:25:22;13.60;1.00
1277;DHT22;631;51.024;13.826;2024-02-15T09:27:52;13.50;99.90
1277;DHT22;631;51.024;13.826;2024-02-15T09:30:20;13.40;99.90
1277;DHT22;631;51.024;13.826;2024-02-15T09:32:50;13.20;99.90
1277;DHT22;631;51.024;13.826;2024-02-15T09:35:15;13.10;1.00
1277;DHT22;631;51.024;13.826;2024-02-15T09:37:48;13.10;1.00
1277;DHT22;631;51.024;13.826;2024-02-15T09:40:18;13.10;1.00
1277;DHT22;631;51.024;13.826;2024-02-15T09:42:45;13.10;1.00
1277;DHT22;631;51.024;13.826;2024-02-15T09:45:12;13.10;1.00
1277;DHT22;631;51.024;13.826;2024-02-15T09:47:40;13.00;1.00
1277;DHT22;631;51.024;13.826;2024-02-15T09:50:07;12.90;1.00
1277;DHT22;631;51.024;13.826;2024-02-15T09:52:34;12.80;1.00
1277;DHT22;631;51.024;13.826;2024-02-15T09:55:03;12.70;1.00
1277;DHT22;631;51.024;13.826;2024-02-15T09:57:29;12.70;1.00
1277;DHT22;631;51.024;13.826;2024-02-15T09:59:58;12.60;1.00
1277;DHT22;631;51.024;13.826;2024-02-15T10:02:26;12.50;1.00
1277;DHT22;631;51.024;13.826;2024-02-15T10:04:53;12.50;1.00
1277;DHT22;631;51.024;13.826;2024-02-15T10:07:24;12.50;1.00
1277;DHT22;631;51.024;13.826;2024-02-15T10:09:52;12.30;1.00
1277;DHT22;631;51.024;13.826;2024-02-15T10:12:18;12.40;1.00
1277;DHT22;631;51.024;13.826;2024-02-15T10:14:50;12.40;1.00
1277;DHT22;631;51.024;13.826;2024-02-15T10:17:18;12.40;1.00
1277;DHT22;631;51.024;13.826;2024-02-15T10:19:44;12.40;1.00
1277;DHT22;631;51.024;13.826;2024-02-15T10:22:12;12.40;1.00
1277;DHT22;631;51.024;13.826;2024-02-15T10:24:40;12.40;1.00
1277;DHT22;631;51.024;13.826;2024-02-15T10:27:06;12.50;1.00
1277;DHT22;631;51.024;13.826;2024-02-15T10:29:33;12.60;1.00
1277;DHT22;631;51.024;13.826;2024-02-15T10:32:03;12.80;1.00
1277;DHT22;631;51.024;13.826;2024-02-15T10:34:29;12.90;1.00
1277;DHT22;631;51.024;13.826;2024-02-15T10:37:16;13.00;1.00
1277;DHT22;631;51.024;13.826;2024-02-15T10:39:42;13.10;1.00
1277;DHT22;631;51.024;13.826;2024-02-15T10:42:08;13.20;1.00
1277;DHT22;631;51.024;13.826;2024-02-15T10:44:37;13.20;1.00
1277;DHT22;631;51.024;13.826;2024-02-15T10:47:06;13.20;1.00
1277;DHT22;631;51.024;13.826;2024-02-15T10:49:34;13.20;1.00
1277;DHT22;631;51.024;13.826;2024-02-15T10:52:01;13.20;1.00
1277;DHT22;631;51.024;13.826;2024-02-15T10:54:43;13.20;1.00
1277;DHT22;631;51.024;13.826;2024-02-15T10:57:12;13.30;1.00
1277;DHT22;631;51.024;13.826;2024-02-15T10:59:47;13.40;1.00
1277;DHT22;631;51.024;13.826;2024-02-15T11:02:30;13.50;99.90
1277;DHT22;631;51.024;13.826;2024-02-15T11:05:03;13.50;1.00
1277;DHT22;631;51.024;13.826;2024-02-15T11:07:31;13.60;99.90
1277;DHT22;631;51.024;13.826;2024-02-15T11:09:58;13.70;99.90
1277;DHT22;631;51.024;13.826;2024-02-15T11:12:24;13.90;99.90
1277;DHT22;631;51.024;13.826;2024-02-15T11:14:54;14.00;99.90
1277;DHT22;631;51.024;13.826;2024-02-15T11:20:09;14.00;99.90
1277;DHT22;631;51.024;13.826;2024-02-15T11:22:37;13.90;99.90
1277;DHT22;631;51.024;13.826;2024-02-15T11:25:04;13.60;99.90
1277;DHT22;631;51.024;13.826;2024-02-15T11:27:35;13.50;99.90
1277;DHT22;631;51.024;13.826;2024-02-15T11:30:03;13.50;99.90
1277;DHT22;631;51.024;13.826;2024-02-15T11:35:10;13.50;99.90
1277;DHT22;631;51.024;13.826;2024-02-15T11:42:44;13.40;1.00
1277;DHT22;631;51.024;13.826;2024-02-15T11:45:10;13.60;1.00
1277;DHT22;631;51.024;13.826;2024-02-15T11:47:40;13.60;1.00
1277;DHT22;631;51.024;13.826;2024-02-15T11:50:11;13.80;99.90
1277;DHT22;631;51.024;13.826;2024-02-15T11:52:44;13.90;99.90
1277;DHT22;631;51.024;13.826;2024-02-15T11:55:11;13.90;99.90
1277;DHT22;631;51.024;13.826;2024-02-15T11:57:39;14.00;99.90
1277;DHT22;631;51.024;13.826;2024-02-15T12:00:23;14.20;99.90
1277;DHT22;631;51.024;13.826;2024-02-15T12:03:08;14.40;99.90
1277;DHT22;631;51.024;13.826;2024-02-15T12:05:52;14.40;99.90
1277;DHT22;631;51.024;13.826;2024-02-15T12:08:37;14.40;99.90
1277;DHT22;631;51.024;13.826;2024-02-15T12:11:22;14.50;99.90
1277;DHT22;631;51.024;13.826;2024-02-15T12:14:06;14.70;99.90
1277;DHT22;631;51.024;13.826;2024-02-15T12:17:07;15.10;99.90
1277;DHT22;631;51.024;13.826;2024-02-15T12:19:53;15.50;99.90
1277;DHT22;631;51.024;13.826;2024-02-15T12:22:31;15.60;99.90
1277;DHT22;631;51.024;13.826;2024-02-15T12:25:01;15.40;99.90
1277;DHT22;631;51.024;13.826;2024-02-15T12:27:31;15.50;99.90
1277;DHT22;631;51.024;13.826;2024-02-15T12:29:57;15.40;99.90
1277;DHT22;631;51.024;13.826;2024-02-15T12:32:26;15.20;99.90
1277;DHT22;631;51.024;13.826;2024-02-15T12:34:53;15.30;99.90
1277;DHT22;631;51.024;13.826;2024-02-15T12:37:20;15.40;99.90
1277;DHT22;631;51.024;13.826;2024-02-15T12:39:49;15.60;99.90
1277;DHT22;631;51.024;13.826;2024-02-15T12:42:15;15.80;99.90
1277;DHT22;631;51.024;13.826;2024-02-15T12:44:46;15.90;99.90
1277;DHT22;631;51.024;13.826;2024-02-15T12:47:19;16.00;99.90
1277;DHT22;631;51.024;13.826;2024-02-15T12:49:45;16.20;99.90
1277;DHT22;631;51.024;13.826;2024-02-15T12:52:34;16.30;99.90
1277;DHT22;631;51.024;13.826;2024-02-15T12:55:07;16.60;99.90
1277;DHT22;631;51.024;13.826;2024-02-15T12:57:33;16.80;99.90
1277;DHT22;631;51.024;13.826;2024-02-15T12:59:59;16.90;99.90
1277;DHT22;631;51.024;13.826;2024-02-15T13:02:25;16.90;99.90
1277;DHT22;631;51.024;13.826;2024-02-15T13:04:57;16.80;99.90
1277;DHT22;631;51.024;13.826;2024-02-15T13:07:23;16.70;99.90
1277;DHT22;631;51.024;13.826;2024-02-15T13:09:49;16.60;99.90
1277;DHT22;631;51.024;13.826;2024-02-15T13:12:15;16.50;99.90
1277;DHT22;631;51.024;13.826;2024-02-15T13:14:40;16.50;99.90
1277;DHT22;631;51.024;13.826;2024-02-15T13:17:06;16.40;99.90
1277;DHT22;631;51.024;13.826;2024-02-15T13:19:32;16.40;99.90
1277;DHT22;631;51.024;13.826;2024-02-15T13:21:59;16.40;99.90
1277;DHT22;631;51.024;13.826;2024-02-15T13:24:25;16.40;99.90
1277;DHT22;631;51.024;13.826;2024-02-15T13:26:51;16.40;99.90
1277;DHT22;631;51.024;13.826;2024-02-15T13:29:17;16.30;99.90
1277;DHT22;631;51.024;13.826;2024-02-15T13:31:43;16.40;99.90
1277;DHT22;631;51.024;13.826;2024-02-15T13:34:09;16.40;99.90
1277;DHT22;631;51.024;13.826;2024-02-15T13:36:37;16.40;99.90
1277;DHT22;631;51.024;13.826;2024-02-15T13:39:03;16.40;99.90
1277;DHT22;631;51.024;13.826;2024-02-15T13:41:30;16.40;99.90
1277;DHT22;631;51.024;13.826;2024-02-15T13:43:56;16.50;99.90
1277;DHT22;631;51.024;13.826;2024-02-15T13:46:21;16.50;99.90
1277;DHT22;631;51.024;13.826;2024-02-15T13:48:47;16.60;99.90
1277;DHT22;631;51.024;13.826;2024-02-15T13:51:12;16.60;99.90
1277;DHT22;631;51.024;13.826;2024-02-15T13:53:39;16.60;99.90
1277;DHT22;631;51.024;13.826;2024-02-15T13:56:06;16.60;99.90
1277;DHT22;631;51.024;13.826;2024-02-15T13:58:31;16.70;99.90
1277;DHT22;631;51.024;13.826;2024-02-15T14:00:58;16.70;99.90
1277;DHT22;631;51.024;13.826;2024-02-15T14:03:26;16.80;99.90
1277;DHT22;631;51.024;13.826;2024-02-15T14:05:51;16.70;99.90
1277;DHT22;631;51.024;13.826;2024-02-15T14:08:17;16.70;99.90
1277;DHT22;631;51.024;13.826;2024-02-15T14:10:44;16.80;99.90
1277;DHT22;631;51.024;13.826;2024-02-15T14:13:10;16.70;99.90
1277;DHT22;631;51.024;13.826;2024-02-15T14:15:37;16.60;99.90
1277;DHT22;631;51.024;13.826;2024-02-15T14:18:10;16.50;99.90
1277;DHT22;631;51.024;13.826;2024-02-15T14:20:36;16.30;99.90
1277;DHT22;631;51.024;13.826;2024-02-15T14:23:03;16.20;99.90
1277;DHT22;631;51.024;13.826;2024-02-15T14:25:32;16.10;99.90
1277;DHT22;631;51.024;13.826;2024-02-15T14:27:58;16.00;99.90
1277;DHT22;631;51.024;13.826;2024-02-15T14:30:24;15.70;99.90
1277;DHT22;631;51.024;13.826;2024-02-15T14:33:08;15.60;99.90
1277;DHT22;631;51.024;13.826;2024-02-15T14:35:37;15.50;99.90
1277;DHT22;631;51.024;13.826;2024-02-15T14:38:06;15.50;99.90
1277;DHT22;631;51.024;13.826;2024-02-15T14:40:35;15.40;99.90
1277;DHT22;631;51.024;13.826;2024-02-15T14:43:01;15.30;99.90
1277;DHT22;631;51.024;13.826;2024-02-15T14:45:27;15.20;99.90
1277;DHT22;631;51.024;13.826;2024-02-15T14:47:54;15.30;99.90
1277;DHT22;631;51.024;13.826;2024-02-15T14:50:19;15.30;99.90
1277;DHT22;631;51.024;13.826;2024-02-15T14:52:46;15.30;99.90
1277;DHT22;631;51.024;13.826;2024-02-15T14:55:13;15.30;99.90
1277;DHT22;631;51.024;13.826;2024-02-15T14:57:39;15.40;99.90
1277;DHT22;631;51.024;13.826;2024-02-15T15:00:05;15.40;99.90
1277;DHT22;631;51.024;13.826;2024-02-15T15:02:38;15.40;99.90
1277;DHT22;631;51.024;13.826;2024-02-15T15:05:04;15.50;99.90
1277;DHT22;631;51.024;13.826;2024-02-15T15:07:48;15.40;99.90
1277;DHT22;631;51.024;13.826;2024-02-15T15:10:32;15.50;99.90
1277;DHT22;631;51.024;13.826;2024-02-15T15:13:16;15.40;99.90
1277;DHT22;631;51.024;13.826;2024-02-15T15:15:44;15.40;99.90
1277;DHT22;631;51.024;13.826;2024-02-15T15:18:11;15.40;99.90
1277;DHT22;631;51.024;13.826;2024-02-15T15:20:36;15.30;99.90
1277;DHT22;631;51.024;13.826;2024-02-15T15:23:03;15.30;99.90
1277;DHT22;631;51.024;13.826;2024-02-15T15:25:30;15.20;99.90
1277;DHT22;631;51.024;13.826;2024-02-15T15:27:55;15.20;99.90
1277;DHT22;631;51.024;13.826;2024-02-15T15:30:22;15.10;99.90
1277;DHT22;631;51.024;13.826;2024-02-15T15:32:48;15.20;99.90
1277;DHT22;631;51.024;13.826;2024-02-15T15:35:17;15.10;99.90
1277;DHT22;631;51.024;13.826;2024-02-15T15:37:44;15.00;99.90
1277;DHT22;631;51.024;13.826;2024-02-15T15:40:11;15.00;99.90
1277;DHT22;631;51.024;13.826;2024-02-15T15:42:40;15.00;99.90
1277;DHT22;631;51.024;13.826;2024-02-15T15:45:06;15.00;99.90
1277;DHT22;631;51.024;13.826;2024-02-15T15:47:34;14.90;99.90
1277;DHT22;631;51.024;13.826;2024-02-15T15:50:00;14.90;99.90
1277;DHT22;631;51.024;13.826;2024-02-15T15:52:26;14.90;99.90
1277;DHT22;631;51.024;13.826;2024-02-15T15:54:51;14.90;99.90
1277;DHT22;631;51.024;13.826;2024-02-15T15:57:17;14.80;99.90
1277;DHT22;631;51.024;13.826;2024-02-15T15:59:44;14.80;99.90
1277;DHT22;631;51.024;13.826;2024-02-15T16:02:10;14.70;99.90
1277;DHT22;631;51.024;13.826;2024-02-15T16:04:45;14.60;99.90
1277;DHT22;631;51.024;13.826;2024-02-15T16:07:12;14.50;99.90
1277;DHT22;631;51.024;13.826;2024-02-15T16:09:39;14.40;99.90
1277;DHT22;631;51.024;13.826;2024-02-15T16:12:12;14.40;99.90
1277;DHT22;631;51.024;13.826;2024-02-15T16:14:44;14.30;99.90
1277;DHT22;631;51.024;13.826;2024-02-15T16:17:13;14.20;99.90
1277;DHT22;631;51.024;13.826;2024-02-15T16:19:40;14.10;99.90
1277;DHT22;631;51.024;13.826;2024-02-15T16:22:08;14.00;99.90
1277;DHT22;631;51.024;13.826;2024-02-15T16:24:35;13.90;99.90
1277;DHT22;631;51.024;13.826;2024-02-15T16:27:03;13.90;99.90
1277;DHT22;631;51.024;13.826;2024-02-15T16:29:34;13.80;99.90
1277;DHT22;631;51.024;13.826;2024-02-15T16:32:01;13.70;99.90
1277;DHT22;631;51.024;13.826;2024-02-15T16:34:27;13.60;99.90